Detalii statie ERDEI ROBERT [00001D0F]

Toti senzorii

Date Temperatura solului [C]Precipitatii [mm]Voltaj baterie [mV]Leaf Wetness [Min]HC Air temperature [C]HC Relative humidity [%]Punctul de roua [C]
medieminmaxsumaultimatimpmedieminmaxmediemediemin
2019-02-21 00:00:00 0 6660 2.29 1.34 3.02 0 0 0
2019-02-21 01:00:00 0 6650 0.48 -0.38 1.37 0 0 0
2019-02-21 02:00:00 0 6640 -1.2 -1.61 -0.73 0 0 0
2019-02-21 03:00:00 0 6640 -1.75 -2.26 -1.17 0 0 0
2019-02-21 04:00:00 0 6630 -2.33 -2.98 -1.74 0 0 0
2019-02-21 05:00:00 0 6630 -1.61 -2.16 -1.15 0 0 0
2019-02-21 06:00:00 0 6630 -2.43 -2.88 -1.72 0 0 0
2019-02-21 07:00:00 0 6630 -3.21 -4.13 -2.52 0 0 0
2019-02-21 08:00:00 0 6660 -3.15 -4.03 -1.87 0 0 0
2019-02-21 09:00:00 0 7030 -1.21 -1.93 -0.19 0 0 0
2019-02-21 10:00:00 0 7176 2.13 0.35 3.77 0 0 0
2019-02-21 11:00:00 0 7166 5.23 3.59 7.18 0 0 0
2019-02-21 12:00:00 0 7166 8.4 7.49 9.48 0 0 0
2019-02-21 13:00:00 0 7158 10.57 9.79 11.67 0 0 0
2019-02-21 14:00:00 0 7148 11.87 11.16 12.51 0 0 0
2019-02-21 15:00:00 0 7148 11.52 10.49 12.4 0 0 0
2019-02-21 16:00:00 0 6932 10.99 10.48 12.17 0 0 0
2019-02-21 17:00:00 0 7138 10.81 10.38 11.31 0 0 0
2019-02-21 18:00:00 0 6718 8.78 6.36 10.49 0 0 0
2019-02-21 19:00:00 0 6708 5.37 3.91 6.1 0 0 0
2019-02-21 20:00:00 0 6688 3.99 3.66 4.62 0 0 0
2019-02-21 21:00:00 0 6668 3.65 2.97 4.48 0 0 0
2019-02-21 22:00:00 0 6660 2.69 1.98 3.49 0 0 0
2019-02-21 23:00:00 0 6660 2.59 2.06 2.93 0 0 0
2019-02-22 00:00:00 0 6660 3.5 2.91 4.08 0 0 0
2019-02-22 01:00:00 0 6650 4.23 4.16 4.32 0 0 0
2019-02-22 02:00:00 0 6650 4.41 4.1 4.83 0 0 0
2019-02-22 03:00:00 0.4 6650 4.79 4.49 5.09 0 0 0
2019-02-22 04:00:00 0.8 6650 5.31 5.09 5.47 0 0 0
2019-02-22 05:00:00 0.8 6640 5.39 5.32 5.48 0 0 0
2019-02-22 06:00:00 0.6 6640 5.35 5.25 5.42 0 0 0
2019-02-22 07:00:00 0.6 6650 5.11 4.99 5.19 0 0 0
2019-02-22 08:00:00 0.6 6640 5.05 4.97 5.14 0 0 0
2019-02-22 09:00:00 0.6 6688 5.28 5.13 5.53 0 0 0
2019-02-22 10:00:00 0.2 6766 5.74 5.5 6.02 0 0 0
2019-02-22 11:00:00 0.4 6806 6.18 6.01 6.37 0 0 0
2019-02-22 12:00:00 0.2 6904 7.05 6.43 7.75 0 0 0
2019-02-22 13:00:00 0.4 6834 7.22 7.08 7.44 0 0 0
2019-02-22 14:00:00 0.2 6786 6.46 4.8 7.17 0 0 0
2019-02-22 15:00:00 0.2 6796 4.24 4.01 4.51 0 0 0
2019-02-22 16:00:00 0.2 7158 4.27 3.95 4.93 0 0 0
2019-02-22 17:00:00 0.2 7138 3.83 2.73 4.58 0 0 0
2019-02-22 18:00:00 0 6748 1.52 0.56 2.49 0 0 0
2019-02-22 19:00:00 0 6718 0.11 -0.27 0.54 0 0 0
2019-02-22 20:00:00 0 6698 -0.86 -1.33 -0.35 0 0 0
2019-02-22 21:00:00 0 6678 -1.76 -2.14 -1.49 0 0 0
2019-02-22 22:00:00 0 6660 -2.48 -2.83 -2.14 0 0 0
2019-02-22 23:00:00 0 6650 -3.02 -3.14 -2.85 0 0 0